sensor_id;sensor_type;location;lat;lon;timestamp;P1;durP1;ratioP1;P2;durP2;ratioP2
3231;SDS011;1628;48.884;9.210;2024-03-23T18:18:29;19.27;;;9.15;;
3231;SDS011;1628;48.884;9.210;2024-03-23T18:20:56;12.93;;;6.90;;
3231;SDS011;1628;48.884;9.210;2024-03-23T18:23:25;14.27;;;7.22;;
3231;SDS011;1628;48.884;9.210;2024-03-23T18:25:51;12.47;;;6.43;;
3231;SDS011;1628;48.884;9.210;2024-03-23T18:28:17;11.18;;;5.95;;
3231;SDS011;1628;48.884;9.210;2024-03-23T18:30:44;10.90;;;5.88;;
3231;SDS011;1628;48.884;9.210;2024-03-23T18:33:10;12.23;;;6.07;;
3231;SDS011;1628;48.884;9.210;2024-03-23T18:35:38;10.77;;;5.22;;
3231;SDS011;1628;48.884;9.210;2024-03-23T18:38:04;11.27;;;5.30;;
3231;SDS011;1628;48.884;9.210;2024-03-23T18:40:30;9.73;;;5.30;;
3231;SDS011;1628;48.884;9.210;2024-03-23T18:42:56;11.63;;;5.53;;
3231;SDS011;1628;48.884;9.210;2024-03-23T18:45:23;8.18;;;4.32;;
3231;SDS011;1628;48.884;9.210;2024-03-23T18:47:48;10.60;;;4.32;;
3231;SDS011;1628;48.884;9.210;2024-03-23T18:50:15;9.23;;;4.47;;
3231;SDS011;1628;48.884;9.210;2024-03-23T18:52:42;8.60;;;4.33;;
3231;SDS011;1628;48.884;9.210;2024-03-23T18:55:09;7.53;;;4.20;;
3231;SDS011;1628;48.884;9.210;2024-03-23T18:57:34;7.33;;;4.03;;
3231;SDS011;1628;48.884;9.210;2024-03-23T19:00:01;11.23;;;4.85;;
3231;SDS011;1628;48.884;9.210;2024-03-23T19:02:27;8.55;;;4.40;;
3231;SDS011;1628;48.884;9.210;2024-03-23T19:04:54;7.85;;;4.10;;
3231;SDS011;1628;48.884;9.210;2024-03-23T19:07:20;9.33;;;4.27;;
3231;SDS011;1628;48.884;9.210;2024-03-23T19:09:48;7.33;;;4.33;;
3231;SDS011;1628;48.884;9.210;2024-03-23T19:12:15;7.40;;;4.15;;
3231;SDS011;1628;48.884;9.210;2024-03-23T19:14:42;7.00;;;4.30;;
3231;SDS011;1628;48.884;9.210;2024-03-23T19:17:08;7.05;;;4.03;;
3231;SDS011;1628;48.884;9.210;2024-03-23T19:19:35;6.70;;;3.80;;
3231;SDS011;1628;48.884;9.210;2024-03-23T19:22:01;7.72;;;4.10;;
3231;SDS011;1628;48.884;9.210;2024-03-23T19:24:27;5.85;;;3.72;;
3231;SDS011;1628;48.884;9.210;2024-03-23T19:26:54;4.80;;;3.40;;
3231;SDS011;1628;48.884;9.210;2024-03-23T19:29:21;8.30;;;4.30;;
3231;SDS011;1628;48.884;9.210;2024-03-23T19:31:47;5.47;;;3.70;;
3231;SDS011;1628;48.884;9.210;2024-03-23T19:34:13;6.97;;;4.20;;
3231;SDS011;1628;48.884;9.210;2024-03-23T19:36:41;5.35;;;3.63;;
3231;SDS011;1628;48.884;9.210;2024-03-23T19:39:06;5.03;;;3.00;;
3231;SDS011;1628;48.884;9.210;2024-03-23T19:41:33;5.72;;;3.40;;
3231;SDS011;1628;48.884;9.210;2024-03-23T19:44:00;6.47;;;3.63;;
3231;SDS011;1628;48.884;9.210;2024-03-23T19:46:27;4.63;;;3.35;;
3231;SDS011;1628;48.884;9.210;2024-03-23T19:48:52;5.47;;;3.40;;
3231;SDS011;1628;48.884;9.210;2024-03-23T19:51:19;5.25;;;3.28;;
3231;SDS011;1628;48.884;9.210;2024-03-23T19:53:46;5.30;;;3.30;;
3231;SDS011;1628;48.884;9.210;2024-03-23T19:56:16;5.15;;;3.38;;
3231;SDS011;1628;48.884;9.210;2024-03-23T19:58:42;5.13;;;3.20;;
3231;SDS011;1628;48.884;9.210;2024-03-23T20:01:13;6.70;;;3.13;;
3231;SDS011;1628;48.884;9.210;2024-03-23T20:03:39;6.50;;;3.65;;
3231;SDS011;1628;48.884;9.210;2024-03-23T20:06:06;5.55;;;3.30;;
3231;SDS011;1628;48.884;9.210;2024-03-23T20:08:33;5.50;;;3.00;;
3231;SDS011;1628;48.884;9.210;2024-03-23T20:11:00;6.07;;;3.40;;
3231;SDS011;1628;48.884;9.210;2024-03-23T20:13:26;4.72;;;3.00;;
3231;SDS011;1628;48.884;9.210;2024-03-23T20:15:52;4.18;;;3.17;;
3231;SDS011;1628;48.884;9.210;2024-03-23T20:18:20;5.97;;;3.30;;
3231;SDS011;1628;48.884;9.210;2024-03-23T20:20:46;4.00;;;3.10;;
3231;SDS011;1628;48.884;9.210;2024-03-23T20:23:14;3.85;;;3.33;;
3231;SDS011;1628;48.884;9.210;2024-03-23T20:25:49;4.20;;;2.80;;
3231;SDS011;1628;48.884;9.210;2024-03-23T20:28:15;4.10;;;3.00;;
3231;SDS011;1628;48.884;9.210;2024-03-23T20:30:42;6.05;;;3.10;;
3231;SDS011;1628;48.884;9.210;2024-03-23T20:33:07;4.90;;;3.27;;
3231;SDS011;1628;48.884;9.210;2024-03-23T20:35:36;4.60;;;3.10;;
3231;SDS011;1628;48.884;9.210;2024-03-23T20:38:01;3.03;;;2.70;;
3231;SDS011;1628;48.884;9.210;2024-03-23T20:40:28;4.78;;;3.00;;
3231;SDS011;1628;48.884;9.210;2024-03-23T20:42:54;5.30;;;3.08;;
3231;SDS011;1628;48.884;9.210;2024-03-23T20:45:32;4.55;;;2.70;;
3231;SDS011;1628;48.884;9.210;2024-03-23T20:47:58;4.30;;;2.80;;
3231;SDS011;1628;48.884;9.210;2024-03-23T20:50:24;4.13;;;3.00;;
3231;SDS011;1628;48.884;9.210;2024-03-23T20:52:51;4.25;;;3.00;;
3231;SDS011;1628;48.884;9.210;2024-03-23T20:55:19;4.40;;;2.97;;
3231;SDS011;1628;48.884;9.210;2024-03-23T20:57:45;3.45;;;2.97;;
3231;SDS011;1628;48.884;9.210;2024-03-23T21:00:12;3.97;;;2.75;;
3231;SDS011;1628;48.884;9.210;2024-03-23T21:02:39;3.85;;;2.70;;
3231;SDS011;1628;48.884;9.210;2024-03-23T21:05:06;3.70;;;3.00;;
3231;SDS011;1628;48.884;9.210;2024-03-23T21:07:33;4.47;;;2.70;;
3231;SDS011;1628;48.884;9.210;2024-03-23T21:10:01;4.30;;;2.50;;
3231;SDS011;1628;48.884;9.210;2024-03-23T21:12:27;5.20;;;2.40;;
3231;SDS011;1628;48.884;9.210;2024-03-23T21:14:54;3.60;;;2.40;;
3231;SDS011;1628;48.884;9.210;2024-03-23T21:17:20;5.77;;;2.70;;
3231;SDS011;1628;48.884;9.210;2024-03-23T21:19:46;4.10;;;2.40;;
3231;SDS011;1628;48.884;9.210;2024-03-23T21:22:12;3.70;;;2.50;;
3231;SDS011;1628;48.884;9.210;2024-03-23T21:24:39;2.63;;;2.20;;
3231;SDS011;1628;48.884;9.210;2024-03-23T21:27:06;4.38;;;2.50;;
3231;SDS011;1628;48.884;9.210;2024-03-23T21:29:32;3.67;;;2.22;;
3231;SDS011;1628;48.884;9.210;2024-03-23T21:31:58;4.55;;;2.30;;
3231;SDS011;1628;48.884;9.210;2024-03-23T21:34:25;7.28;;;2.30;;
3231;SDS011;1628;48.884;9.210;2024-03-23T21:36:52;4.25;;;2.15;;
3231;SDS011;1628;48.884;9.210;2024-03-23T21:39:19;6.50;;;2.40;;
3231;SDS011;1628;48.884;9.210;2024-03-23T21:41:45;3.72;;;2.30;;
3231;SDS011;1628;48.884;9.210;2024-03-23T21:44:13;6.30;;;2.13;;
3231;SDS011;1628;48.884;9.210;2024-03-23T21:46:39;3.42;;;2.00;;
3231;SDS011;1628;48.884;9.210;2024-03-23T21:49:06;4.27;;;2.30;;
3231;SDS011;1628;48.884;9.210;2024-03-23T21:51:31;5.50;;;2.20;;
3231;SDS011;1628;48.884;9.210;2024-03-23T21:54:00;5.25;;;2.03;;
3231;SDS011;1628;48.884;9.210;2024-03-23T21:56:27;3.25;;;2.00;;
3231;SDS011;1628;48.884;9.210;2024-03-23T21:58:54;3.92;;;2.13;;
3231;SDS011;1628;48.884;9.210;2024-03-23T22:01:23;2.38;;;1.90;;
3231;SDS011;1628;48.884;9.210;2024-03-23T22:03:50;2.80;;;2.30;;
3231;SDS011;1628;48.884;9.210;2024-03-23T22:06:17;4.57;;;2.05;;
3231;SDS011;1628;48.884;9.210;2024-03-23T22:08:43;8.70;;;2.30;;
